Time;durP1;ratioP1;P1;durP2;ratioP2;P2;SDS_P1;SDS_P2;PMS_P1;PMS_P2;Temp;Humidity;BMP_temperature;BMP_pressure;BME280_temperature;BME280_humidity;BME280_pressure;Samples;Min_cycle;Max_cycle;Signal;HPM_P1;HPM_P2
2023/04/21 00:02:26;;;;;;;26.48;21.95;;;9.80;80.40;;;;;;5086645;28;20039;-79
2023/04/21 00:04:52;;;;;;;27.65;21.52;;;9.80;80.60;;;;;;5081457;28;20043;-80
2023/04/21 00:07:19;;;;;;;29.20;20.48;;;9.80;80.70;;;;;;5082293;28;20130;-80
2023/04/21 00:09:45;;;;;;;29.25;21.92;;;9.80;80.90;;;;;;5042177;28;20079;-80
2023/04/21 00:12:10;;;;;;;25.60;20.88;;;9.80;80.80;;;;;;5076784;28;20063;-80
2023/04/21 00:14:38;;;;;;;27.33;21.38;;;9.80;80.90;;;;;;5062033;28;20510;-80
2023/04/21 00:17:04;;;;;;;26.90;21.33;;;9.80;80.90;;;;;;5041750;28;20055;-80
2023/04/21 00:19:31;;;;;;;29.02;21.00;;;9.80;81.00;;;;;;5065529;28;20077;-80
2023/04/21 00:22:00;;;;;;;28.70;20.17;;;9.80;81.00;;;;;;5082179;28;20417;-80
2023/04/21 00:24:26;;;;;;;24.10;19.30;;;9.80;81.00;;;;;;5064422;28;20040;-79
2023/04/21 00:26:51;;;;;;;26.23;20.10;;;9.80;81.00;;;;;;5054281;28;20558;-79
2023/04/21 00:29:17;;;;;;;26.30;19.70;;;9.80;81.00;;;;;;5079469;28;20068;-79
2023/04/21 00:31:43;;;;;;;26.10;18.88;;;9.80;81.10;;;;;;5074981;28;20042;-79
2023/04/21 00:34:08;;;;;;;28.35;19.77;;;9.70;81.00;;;;;;5078192;28;20561;-79
2023/04/21 00:36:34;;;;;;;22.73;18.67;;;9.70;81.00;;;;;;5075966;28;20056;-79
2023/04/21 00:39:00;;;;;;;25.20;18.52;;;9.70;80.90;;;;;;5078171;28;20054;-80
2023/04/21 00:41:27;;;;;;;24.70;20.17;;;9.70;80.80;;;;;;5061516;28;20046;-79
2023/04/21 00:44:01;;;;;;;25.70;18.23;;;9.70;80.80;;;;;;5051387;28;20044;-79
2023/04/21 00:46:27;;;;;;;29.10;18.90;;;9.70;80.80;;;;;;5041631;28;20040;-80
2023/04/21 00:48:53;;;;;;;22.80;18.13;;;9.70;80.70;;;;;;5041318;28;20380;-80
2023/04/21 00:51:19;;;;;;;25.63;18.85;;;9.70;80.60;;;;;;5050929;28;20051;-79
2023/04/21 00:53:47;;;;;;;23.48;17.15;;;9.60;80.50;;;;;;5097829;28;20044;-80
2023/04/21 00:56:12;;;;;;;23.67;17.60;;;9.70;80.60;;;;;;5097474;28;20038;-80
2023/04/21 00:58:41;;;;;;;28.05;17.60;;;9.60;80.50;;;;;;5081250;28;20044;-79
2023/04/21 01:01:07;;;;;;;24.45;17.92;;;9.60;80.60;;;;;;5097895;28;20509;-79
2023/04/21 01:03:33;;;;;;;24.98;17.75;;;9.60;80.50;;;;;;5081100;28;20039;-80
2023/04/21 01:05:59;;;;;;;20.88;16.35;;;9.60;80.50;;;;;;5064462;28;20047;-80
2023/04/21 01:08:25;;;;;;;23.38;15.85;;;9.60;80.50;;;;;;5083015;28;20066;-80
2023/04/21 01:10:51;;;;;;;24.33;16.08;;;9.60;80.40;;;;;;5050489;28;20061;-80
2023/04/21 01:13:23;;;;;;;25.15;16.40;;;9.60;80.40;;;;;;5076335;28;20041;-80
2023/04/21 01:15:49;;;;;;;22.17;15.40;;;9.60;80.40;;;;;;5054451;28;20431;-79
2023/04/21 01:18:15;;;;;;;21.42;15.20;;;9.60;80.40;;;;;;5089423;28;20082;-79
2023/04/21 01:20:43;;;;;;;22.05;16.05;;;9.60;80.30;;;;;;5097600;28;20507;-80
2023/04/21 01:23:09;;;;;;;20.10;15.57;;;9.60;80.40;;;;;;5089084;28;20036;-79
2023/04/21 01:25:35;;;;;;;19.83;15.52;;;9.50;80.30;;;;;;5069730;28;20035;-80
2023/04/21 01:28:02;;;;;;;23.52;15.82;;;9.50;80.30;;;;;;5097625;28;20043;-80
2023/04/21 01:30:27;;;;;;;22.58;15.73;;;9.50;80.30;;;;;;5097763;28;20378;-79
2023/04/21 01:32:53;;;;;;;19.88;15.27;;;9.50;80.30;;;;;;5081640;28;20033;-80
2023/04/21 01:35:19;;;;;;;24.02;16.00;;;9.50;80.30;;;;;;5056975;28;20041;-79
2023/04/21 01:37:45;;;;;;;20.98;14.88;;;9.50;80.30;;;;;;5040242;28;20060;-79
2023/04/21 01:40:11;;;;;;;21.70;14.88;;;9.50;80.30;;;;;;5040314;28;20036;-79
2023/04/21 01:42:40;;;;;;;18.85;14.80;;;9.50;80.30;;;;;;5055716;28;20036;-80
2023/04/21 01:45:06;;;;;;;21.42;14.75;;;9.50;80.20;;;;;;5077165;28;20036;-80
2023/04/21 01:47:32;;;;;;;20.73;13.95;;;9.50;80.20;;;;;;5076714;28;20085;-80
2023/04/21 01:49:58;;;;;;;20.08;14.25;;;9.50;80.30;;;;;;5080231;28;20048;-80
2023/04/21 01:52:23;;;;;;;21.38;14.88;;;9.50;80.20;;;;;;5061418;28;20039;-80
2023/04/21 01:54:49;;;;;;;19.90;15.18;;;9.50;80.20;;;;;;5076550;28;20032;-80
2023/04/21 01:57:16;;;;;;;19.48;13.65;;;9.50;80.20;;;;;;5056744;28;20037;-80
2023/04/21 01:59:42;;;;;;;22.67;14.73;;;9.50;80.20;;;;;;5096145;28;20487;-80
2023/04/21 02:02:08;;;;;;;21.55;14.40;;;9.40;80.00;;;;;;5080245;28;20043;-80
2023/04/21 02:04:34;;;;;;;22.60;14.35;;;9.50;80.10;;;;;;5059380;28;20052;-80
2023/04/21 02:07:00;;;;;;;19.35;14.10;;;9.50;80.10;;;;;;5056370;28;20131;-80
2023/04/21 02:09:26;;;;;;;20.17;13.63;;;9.50;80.10;;;;;;5056509;28;20218;-80
2023/04/21 02:11:54;;;;;;;19.60;13.35;;;9.50;80.00;;;;;;5076277;28;20040;-80
2023/04/21 02:14:20;;;;;;;21.65;14.32;;;9.50;80.00;;;;;;5059945;28;20032;-80
2023/04/21 02:16:45;;;;;;;19.52;13.77;;;9.50;80.00;;;;;;5083207;28;20440;-80
2023/04/21 02:19:11;;;;;;;18.88;13.63;;;9.50;80.00;;;;;;5096493;28;20083;-80
2023/04/21 02:21:37;;;;;;;18.35;14.13;;;9.50;79.90;;;;;;5077197;28;20509;-79
2023/04/21 02:24:02;;;;;;;17.63;13.98;;;9.50;79.90;;;;;;5084077;28;20036;-80
2023/04/21 02:26:28;;;;;;;19.35;13.15;;;9.50;79.80;;;;;;5043014;28;20136;-80
2023/04/21 02:28:54;;;;;;;18.75;13.77;;;9.50;79.80;;;;;;5059424;28;20047;-80
2023/04/21 02:31:19;;;;;;;20.10;13.88;;;9.50;79.70;;;;;;5076069;28;20043;-80
2023/04/21 02:33:45;;;;;;;20.92;13.05;;;9.50;79.70;;;;;;5059422;28;20120;-80
2023/04/21 02:36:11;;;;;;;16.75;12.85;;;9.50;79.70;;;;;;5084879;28;20088;-80
2023/04/21 02:38:37;;;;;;;20.48;13.25;;;9.40;79.50;;;;;;5096123;28;20097;-81
2023/04/21 02:41:03;;;;;;;17.85;13.80;;;9.40;79.60;;;;;;5079160;28;20040;-80
2023/04/21 02:43:28;;;;;;;18.23;12.98;;;9.40;79.50;;;;;;5061581;28;20036;-80
2023/04/21 02:45:54;;;;;;;21.75;13.65;;;9.40;79.60;;;;;;5056847;28;20094;-80
2023/04/21 02:48:21;;;;;;;18.85;12.68;;;9.40;79.60;;;;;;5085544;28;20062;-80
2023/04/21 02:50:49;;;;;;;18.60;13.27;;;9.40;79.60;;;;;;5064748;28;20040;-80
2023/04/21 02:53:15;;;;;;;19.05;13.27;;;9.40;79.60;;;;;;5057965;28;20052;-80
2023/04/21 02:55:41;;;;;;;18.30;13.30;;;9.40;79.60;;;;;;5040896;28;20127;-80
2023/04/21 02:58:07;;;;;;;18.40;12.73;;;9.40;79.50;;;;;;5059461;28;20124;-80
2023/04/21 03:00:33;;;;;;;20.63;12.95;;;9.40;79.50;;;;;;5055608;28;20063;-80
2023/04/21 03:02:58;;;;;;;17.42;13.48;;;9.40;79.50;;;;;;5039250;28;20036;-80
2023/04/21 03:05:24;;;;;;;18.63;12.85;;;9.40;79.50;;;;;;5055377;28;20045;-80
2023/04/21 03:07:50;;;;;;;18.80;12.38;;;9.40;79.50;;;;;;5038946;28;20051;-80
2023/04/21 03:10:16;;;;;;;21.13;12.32;;;9.40;79.50;;;;;;5038813;28;20272;-80
2023/04/21 03:12:42;;;;;;;15.40;12.63;;;9.40;79.50;;;;;;5062128;28;20031;-80
2023/04/21 03:15:07;;;;;;;15.88;12.95;;;9.40;79.50;;;;;;5078798;28;20160;-79
2023/04/21 03:17:33;;;;;;;18.17;11.85;;;9.40;79.50;;;;;;5078791;28;20035;-80
2023/04/21 03:19:59;;;;;;;17.55;12.73;;;9.40;79.60;;;;;;5095562;28;20518;-80
2023/04/21 03:22:25;;;;;;;17.52;12.30;;;9.40;79.60;;;;;;5076788;28;20052;-81
2023/04/21 03:24:50;;;;;;;16.30;12.75;;;9.50;79.70;;;;;;5057853;28;20040;-79
2023/04/21 03:27:16;;;;;;;17.67;13.05;;;9.50;79.60;;;;;;5074282;28;20482;-80
2023/04/21 03:29:42;;;;;;;19.35;12.35;;;9.50;79.50;;;;;;5085322;28;20044;-80
2023/04/21 03:32:07;;;;;;;16.25;11.40;;;9.50;79.50;;;;;;5042548;28;20071;-79
2023/04/21 03:34:33;;;;;;;18.30;11.70;;;9.60;79.50;;;;;;5095636;28;20032;-80
2023/04/21 03:36:59;;;;;;;15.18;12.30;;;9.50;79.30;;;;;;5098866;28;20062;-80
2023/04/21 03:39:24;;;;;;;19.77;12.57;;;9.60;79.80;;;;;;5098767;28;20479;-80
2023/04/21 03:41:50;;;;;;;16.27;12.52;;;9.60;79.20;;;;;;5096361;28;20097;-79
2023/04/21 03:44:16;;;;;;;17.85;12.05;;;9.60;79.10;;;;;;5082124;28;20051;-80
2023/04/21 03:46:42;;;;;;;17.90;11.52;;;9.60;79.00;;;;;;5065379;28;20055;-80
2023/04/21 03:49:08;;;;;;;16.88;12.00;;;9.60;78.90;;;;;;5064882;28;20475;-80
2023/04/21 03:51:33;;;;;;;18.30;11.85;;;9.60;78.80;;;;;;5065182;28;20036;-80
2023/04/21 03:53:59;;;;;;;18.95;11.70;;;9.70;78.90;;;;;;5081569;28;20050;-80
2023/04/21 03:56:25;;;;;;;18.65;12.35;;;9.60;78.80;;;;;;5065326;28;20048;-80
2023/04/21 03:58:51;;;;;;;16.08;12.02;;;9.60;78.90;;;;;;5071109;28;20402;-80
2023/04/21 04:01:17;;;;;;;16.65;11.90;;;9.60;78.90;;;;;;5098794;28;20142;-80
2023/04/21 04:03:42;;;;;;;16.60;12.07;;;9.60;79.00;;;;;;5098366;28;20463;-79
2023/04/21 04:06:08;;;;;;;16.73;11.88;;;9.60;79.00;;;;;;5096988;28;20036;-80
2023/04/21 04:08:34;;;;;;;20.38;11.68;;;9.60;79.00;;;;;;5098273;28;20071;-80
2023/04/21 04:10:59;;;;;;;21.17;12.02;;;9.70;79.10;;;;;;5098403;28;20080;-80
2023/04/21 04:13:26;;;;;;;16.13;12.15;;;9.70;79.10;;;;;;5069270;28;20036;-80
2023/04/21 04:15:52;;;;;;;23.63;12.77;;;9.70;79.10;;;;;;5065253;28;20040;-79
2023/04/21 04:18:18;;;;;;;15.95;11.18;;;9.60;79.00;;;;;;5081512;28;20123;-80
2023/04/21 04:20:43;;;;;;;16.17;12.05;;;9.60;79.00;;;;;;5081177;28;20048;-80
2023/04/21 04:23:09;;;;;;;15.40;11.50;;;9.70;79.00;;;;;;5081169;28;20044;-80
2023/04/21 04:25:36;;;;;;;17.27;11.38;;;9.70;78.90;;;;;;5061092;28;20055;-79
2023/04/21 04:28:01;;;;;;;19.88;12.50;;;9.70;78.90;;;;;;5061567;28;20126;-79
2023/04/21 04:30:27;;;;;;;17.13;11.23;;;9.60;78.80;;;;;;5052209;28;20090;-79
2023/04/21 04:32:54;;;;;;;18.40;12.07;;;9.60;78.80;;;;;;5061133;28;20032;-80
2023/04/21 04:35:21;;;;;;;20.60;12.27;;;9.60;78.80;;;;;;5056066;28;20043;-80
2023/04/21 04:37:47;;;;;;;15.98;11.48;;;9.60;78.70;;;;;;5081138;28;20047;-80
2023/04/21 04:40:14;;;;;;;20.08;12.07;;;9.60;78.80;;;;;;5098505;28;20449;-80
2023/04/21 04:42:40;;;;;;;17.33;11.63;;;9.60;78.70;;;;;;5096184;28;20043;-80
2023/04/21 04:45:07;;;;;;;17.60;11.80;;;9.60;78.80;;;;;;5094272;28;20063;-80
2023/04/21 04:47:34;;;;;;;16.52;11.65;;;9.60;78.80;;;;;;5077096;28;20040;-80
2023/04/21 04:50:00;;;;;;;15.98;11.57;;;9.60;78.90;;;;;;5093486;28;20031;-79
2023/04/21 04:52:25;;;;;;;16.52;13.00;;;9.60;78.90;;;;;;5072548;28;20148;-80
2023/04/21 04:54:51;;;;;;;19.00;12.30;;;9.50;78.90;;;;;;5093696;28;20147;-79
2023/04/21 04:57:17;;;;;;;16.55;11.77;;;9.50;79.00;;;;;;5090000;28;20487;-80
2023/04/21 04:59:43;;;;;;;22.15;12.40;;;9.50;79.00;;;;;;5063326;28;20167;-80
2023/04/21 05:02:09;;;;;;;19.80;12.95;;;9.50;79.10;;;;;;5090062;28;20040;-79
2023/04/21 05:04:35;;;;;;;17.15;12.55;;;9.50;79.10;;;;;;5058612;28;20399;-79
2023/04/21 05:07:01;;;;;;;20.08;12.13;;;9.50;79.20;;;;;;5076445;28;20035;-79
2023/04/21 05:09:26;;;;;;;17.95;11.88;;;9.50;79.10;;;;;;5089334;28;20063;-79
2023/04/21 05:11:52;;;;;;;16.85;11.25;;;9.50;79.10;;;;;;5093452;28;20036;-80
2023/04/21 05:14:18;;;;;;;16.95;11.95;;;9.50;79.30;;;;;;5081669;28;20085;-79
2023/04/21 05:16:43;;;;;;;17.73;12.75;;;9.50;79.30;;;;;;5093093;28;20040;-79
2023/04/21 05:19:09;;;;;;;16.90;11.65;;;9.50;79.40;;;;;;5073240;28;20052;-80
2023/04/21 05:21:35;;;;;;;21.10;12.57;;;9.50;79.40;;;;;;5054893;28;20483;-80
2023/04/21 05:24:01;;;;;;;17.55;11.73;;;9.60;79.40;;;;;;5056177;28;20040;-80
2023/04/21 05:26:28;;;;;;;15.55;11.38;;;9.60;79.30;;;;;;5058242;28;20024;-80
2023/04/21 05:28:55;;;;;;;17.08;11.73;;;9.60;79.40;;;;;;5059338;28;20123;-79
2023/04/21 05:31:21;;;;;;;20.13;12.18;;;9.60;79.40;;;;;;5076524;28;20504;-79
2023/04/21 05:33:47;;;;;;;16.65;12.07;;;9.60;79.20;;;;;;5072736;28;20127;-79
2023/04/21 05:36:13;;;;;;;17.75;12.45;;;9.60;79.10;;;;;;5056015;28;20136;-80
2023/04/21 05:38:39;;;;;;;15.63;11.68;;;9.70;79.10;;;;;;5056177;28;20102;-80
2023/04/21 05:41:05;;;;;;;17.60;11.98;;;9.70;79.00;;;;;;5055858;28;20043;-79
2023/04/21 05:43:33;;;;;;;17.67;12.45;;;9.80;79.00;;;;;;5067324;28;20063;-80
2023/04/21 05:46:03;;;;;;;16.60;11.95;;;9.80;79.00;;;;;;5052473;28;20036;-80
2023/04/21 05:48:29;;;;;;;16.52;11.32;;;9.80;78.80;;;;;;5067563;28;20483;-79
2023/04/21 05:50:55;;;;;;;16.95;11.68;;;9.80;78.50;;;;;;5059162;28;20188;-80
2023/04/21 05:53:22;;;;;;;18.02;11.00;;;9.80;78.40;;;;;;5072140;28;20466;-79
2023/04/21 05:55:48;;;;;;;15.00;10.50;;;9.80;78.30;;;;;;5075713;28;20071;-79
2023/04/21 05:58:14;;;;;;;18.48;12.18;;;9.80;78.40;;;;;;5092818;28;20099;-79
2023/04/21 06:00:40;;;;;;;18.02;12.57;;;9.90;78.50;;;;;;5075922;28;20499;-78
2023/04/21 06:03:05;;;;;;;16.52;11.70;;;9.90;78.40;;;;;;5093032;28;20052;-78
2023/04/21 06:05:31;;;;;;;17.95;11.48;;;10.00;78.50;;;;;;5076088;28;20044;-79
2023/04/21 06:07:57;;;;;;;17.40;12.50;;;10.00;78.50;;;;;;5092724;28;20040;-78
2023/04/21 06:10:24;;;;;;;17.45;11.40;;;10.10;78.20;;;;;;5059322;28;20032;-78
2023/04/21 06:12:50;;;;;;;19.27;11.02;;;10.20;78.20;;;;;;5092365;28;20114;-79
2023/04/21 06:15:15;;;;;;;12.77;10.55;;;10.20;78.00;;;;;;5059265;28;20075;-78
2023/04/21 06:17:41;;;;;;;18.58;11.48;;;10.30;77.70;;;;;;5060230;28;20040;-79
2023/04/21 06:20:07;;;;;;;16.25;10.60;;;10.30;77.60;;;;;;5059062;28;20044;-78
2023/04/21 06:22:33;;;;;;;15.95;11.13;;;10.30;77.60;;;;;;5075538;28;20036;-79
2023/04/21 06:24:59;;;;;;;17.05;11.93;;;10.30;77.50;;;;;;5026180;28;20089;-77
2023/04/21 06:27:25;;;;;;;19.02;11.50;;;10.40;77.40;;;;;;5068318;28;20495;-77
2023/04/21 06:29:55;;;;;;;15.38;10.68;;;10.40;77.40;;;;;;5078411;28;20039;-78
2023/04/21 06:32:20;;;;;;;14.15;10.93;;;10.40;77.30;;;;;;5059879;28;20040;-80
2023/04/21 06:34:46;;;;;;;15.32;11.05;;;10.40;77.40;;;;;;5084800;28;20527;-78
2023/04/21 06:37:12;;;;;;;18.45;11.68;;;10.40;77.40;;;;;;5074647;28;20052;-78
2023/04/21 06:39:37;;;;;;;16.98;11.35;;;10.40;77.40;;;;;;5057918;28;20062;-78
2023/04/21 06:42:03;;;;;;;17.40;10.75;;;10.50;77.40;;;;;;5092265;28;20040;-78
2023/04/21 06:44:31;;;;;;;17.50;10.88;;;10.50;77.40;;;;;;5054214;28;20044;-78
2023/04/21 06:46:56;;;;;;;16.98;10.93;;;10.50;77.40;;;;;;5079170;28;20043;-78
2023/04/21 06:49:22;;;;;;;15.40;11.10;;;10.50;77.60;;;;;;5090649;28;20040;-78
2023/04/21 06:51:48;;;;;;;20.00;12.02;;;10.60;77.60;;;;;;5074325;28;20090;-78
2023/04/21 06:54:13;;;;;;;17.98;11.38;;;10.60;77.60;;;;;;5057205;28;20036;-78
2023/04/21 06:56:41;;;;;;;19.23;11.50;;;10.60;77.50;;;;;;5041792;28;20165;-78
2023/04/21 06:59:08;;;;;;;18.42;10.77;;;10.60;77.70;;;;;;5058084;28;20055;-78
2023/04/21 07:01:33;;;;;;;19.70;11.23;;;10.70;77.70;;;;;;5060007;28;20039;-79
2023/04/21 07:03:59;;;;;;;17.95;10.52;;;10.70;77.40;;;;;;5091419;28;20052;-77
2023/04/21 07:06:25;;;;;;;17.08;10.98;;;10.80;77.40;;;;;;5036869;28;20056;-78
2023/04/21 07:08:51;;;;;;;16.35;11.45;;;10.80;77.30;;;;;;5037613;28;20046;-78
2023/04/21 07:11:17;;;;;;;16.75;10.90;;;10.80;77.20;;;;;;5054581;28;20036;-79
2023/04/21 07:13:42;;;;;;;14.80;10.43;;;10.90;77.20;;;;;;5035948;28;20036;-78
2023/04/21 07:16:08;;;;;;;14.75;10.50;;;10.90;77.20;;;;;;5075467;28;20141;-78
2023/04/21 07:18:34;;;;;;;18.90;11.00;;;10.90;77.30;;;;;;5044051;28;20040;-78
2023/04/21 07:21:00;;;;;;;18.77;10.85;;;11.00;77.10;;;;;;5077099;28;20048;-78
2023/04/21 07:23:25;;;;;;;16.25;10.82;;;11.00;77.00;;;;;;5060107;28;20479;-79
2023/04/21 07:25:51;;;;;;;15.77;10.55;;;11.00;76.80;;;;;;5040582;28;20052;-78
2023/04/21 07:28:17;;;;;;;15.18;11.43;;;11.10;76.70;;;;;;5074235;28;20057;-79
2023/04/21 07:30:42;;;;;;;15.20;10.90;;;11.10;76.80;;;;;;5085781;28;20043;-78
2023/04/21 07:33:08;;;;;;;16.20;10.38;;;11.10;76.70;;;;;;5091193;28;20061;-78
2023/04/21 07:35:34;;;;;;;16.63;10.20;;;11.10;76.70;;;;;;5057788;28;20567;-78
2023/04/21 07:38:00;;;;;;;14.60;10.32;;;11.20;76.60;;;;;;5044235;28;20060;-79
2023/04/21 07:40:25;;;;;;;18.25;11.25;;;11.20;76.40;;;;;;5083355;28;20059;-78
2023/04/21 07:42:51;;;;;;;15.38;10.32;;;11.30;76.20;;;;;;5060524;28;20068;-79
2023/04/21 07:45:17;;;;;;;16.80;10.20;;;11.30;76.30;;;;;;5060708;28;20118;-79
2023/04/21 07:47:42;;;;;;;14.50;10.38;;;11.30;76.20;;;;;;5047891;28;20037;-78
2023/04/21 07:50:09;;;;;;;14.52;10.50;;;11.40;76.20;;;;;;5054090;28;20388;-79
2023/04/21 07:52:35;;;;;;;13.95;10.20;;;11.40;76.30;;;;;;5054544;28;20100;-79
2023/04/21 07:55:00;;;;;;;15.88;10.13;;;11.50;76.30;;;;;;5044622;28;20040;-79
2023/04/21 07:57:26;;;;;;;13.65;10.00;;;11.60;76.20;;;;;;5012179;28;20072;-80
2023/04/21 07:59:52;;;;;;;16.65;10.40;;;11.60;76.00;;;;;;5043991;28;20061;-78
2023/04/21 08:02:18;;;;;;;16.35;9.82;;;11.70;75.80;;;;;;5059118;28;20048;-79
2023/04/21 08:04:43;;;;;;;15.25;10.45;;;11.80;75.60;;;;;;5036960;28;20048;-79
2023/04/21 08:07:09;;;;;;;16.63;10.35;;;11.80;75.80;;;;;;5037004;28;20122;-79
2023/04/21 08:09:35;;;;;;;18.20;10.73;;;11.90;75.60;;;;;;5020720;28;20759;-79
2023/04/21 08:12:01;;;;;;;16.00;10.10;;;11.90;75.50;;;;;;5039572;28;20364;-79
2023/04/21 08:14:27;;;;;;;14.75;9.90;;;12.00;75.20;;;;;;5020709;28;20178;-78
2023/04/21 08:16:53;;;;;;;15.32;10.90;;;12.10;75.00;;;;;;5020258;28;20504;-78
2023/04/21 08:19:19;;;;;;;16.98;10.07;;;12.10;74.50;;;;;;5057305;28;20044;-79
2023/04/21 08:21:45;;;;;;;15.48;10.35;;;12.20;74.60;;;;;;5060457;28;20044;-79
2023/04/21 08:24:11;;;;;;;12.43;10.02;;;12.20;74.40;;;;;;5043816;28;20123;-79
2023/04/21 08:26:37;;;;;;;19.25;11.18;;;12.30;74.40;;;;;;5060521;28;20131;-78
2023/04/21 08:29:05;;;;;;;14.38;10.48;;;12.30;74.00;;;;;;5040452;28;20139;-79
2023/04/21 08:31:31;;;;;;;14.63;10.35;;;12.40;73.90;;;;;;5050322;28;20036;-78
2023/04/21 08:33:57;;;;;;;13.75;10.52;;;12.40;73.90;;;;;;5049997;28;20047;-78
2023/04/21 08:36:23;;;;;;;18.88;10.30;;;12.50;73.80;;;;;;5050914;28;20040;-79
2023/04/21 08:38:48;;;;;;;17.15;10.50;;;12.60;73.90;;;;;;5049217;28;20050;-79
2023/04/21 08:41:14;;;;;;;16.98;10.48;;;12.60;73.90;;;;;;5049015;28;20171;-79
2023/04/21 08:43:40;;;;;;;13.02;10.40;;;12.70;73.50;;;;;;5033116;28;20507;-79
2023/04/21 08:46:07;;;;;;;18.88;10.23;;;12.80;73.70;;;;;;5047508;28;20047;-78
2023/04/21 08:48:37;;;;;;;14.50;10.38;;;12.90;73.10;;;;;;5033773;28;20487;-80
2023/04/21 08:51:10;;;;;;;14.40;10.10;;;13.00;73.60;;;;;;5032701;28;20086;-78
2023/04/21 08:53:40;;;;;;;18.08;11.35;;;13.10;73.40;;;;;;5063594;28;20411;-78
2023/04/21 08:56:06;;;;;;;13.57;10.65;;;13.20;72.80;;;;;;5051075;28;20066;-79
2023/04/21 08:58:32;;;;;;;19.77;11.18;;;13.30;72.70;;;;;;5048997;28;20097;-78
2023/04/21 09:00:57;;;;;;;15.07;10.35;;;13.40;71.80;;;;;;5031914;28;21543;-79
2023/04/21 09:03:26;;;;;;;15.55;11.10;;;13.60;71.20;;;;;;5051388;28;20372;-78
2023/04/21 09:06:00;;;;;;;18.73;11.98;;;13.70;71.50;;;;;;5048822;28;20051;-79
2023/04/21 09:08:29;;;;;;;13.75;10.43;;;13.80;70.70;;;;;;5049395;28;20040;-79
2023/04/21 09:10:56;;;;;;;16.13;10.50;;;13.90;70.10;;;;;;5042252;28;20068;-79
2023/04/21 09:13:31;;;;;;;24.52;13.70;;;14.10;70.10;;;;;;5046055;28;20114;-79
2023/04/21 09:15:58;;;;;;;16.92;11.82;;;14.20;70.10;;;;;;5030404;28;20069;-78
2023/04/21 09:18:26;;;;;;;18.27;10.45;;;14.30;70.50;;;;;;5048263;28;20041;-79
2023/04/21 09:21:08;;;;;;;15.77;9.98;;;14.50;69.50;;;;;;5038626;28;20041;-78
2023/04/21 09:23:47;;;;;;;16.73;10.70;;;14.70;69.50;;;;;;5063927;28;20132;-78
2023/04/21 09:26:14;;;;;;;15.63;9.75;;;14.90;68.40;;;;;;5033094;28;20067;-79
2023/04/21 09:28:42;;;;;;;12.63;9.95;;;15.00;67.30;;;;;;5047575;28;20114;-78
2023/04/21 09:31:23;;;;;;;16.13;10.70;;;15.10;66.70;;;;;;5050049;28;20032;-78
2023/04/21 09:33:51;;;;;;;15.30;10.57;;;15.20;64.60;;;;;;5064553;28;20032;-77
2023/04/21 09:36:26;;;;;;;15.88;10.23;;;15.30;66.20;;;;;;5048526;28;20044;-78
2023/04/21 09:39:00;;;;;;;14.65;10.30;;;15.40;67.00;;;;;;5064148;28;20043;-79
2023/04/21 09:41:26;;;;;;;15.55;10.07;;;15.60;66.80;;;;;;5065144;28;20040;-78
2023/04/21 09:43:52;;;;;;;15.85;10.88;;;15.70;66.70;;;;;;5046238;28;20089;-78
2023/04/21 09:46:20;;;;;;;14.10;10.02;;;15.90;66.10;;;;;;5046808;28;20036;-79
2023/04/21 09:48:46;;;;;;;14.73;10.07;;;16.00;64.90;;;;;;5036249;28;20041;-79
2023/04/21 09:51:14;;;;;;;12.52;9.75;;;16.10;62.90;;;;;;5047420;28;20043;-78
2023/04/21 09:53:41;;;;;;;16.58;10.35;;;16.20;62.10;;;;;;5045764;28;20032;-79
2023/04/21 09:56:15;;;;;;;17.38;11.30;;;16.30;63.40;;;;;;5062464;28;20135;-78
2023/04/21 09:59:06;;;;;;;13.00;9.88;;;16.40;62.90;;;;;;5043955;28;20040;-78
2023/04/21 10:01:34;;;;;;;16.92;11.18;;;16.60;61.70;;;;;;5063810;28;20371;-78
2023/04/21 10:04:00;;;;;;;15.93;12.02;;;16.70;60.80;;;;;;5050992;28;20058;-78
2023/04/21 10:06:26;;;;;;;17.52;11.45;;;16.70;59.60;;;;;;5063425;28;20123;-78
2023/04/21 10:08:55;;;;;;;16.88;11.75;;;16.70;59.60;;;;;;5034834;28;20118;-78
2023/04/21 10:11:21;;;;;;;18.00;11.18;;;16.60;59.70;;;;;;5062736;28;20036;-78
2023/04/21 10:13:47;;;;;;;18.33;11.52;;;16.60;58.90;;;;;;5047347;28;20044;-78
2023/04/21 10:16:18;;;;;;;16.23;11.48;;;16.50;59.60;;;;;;5062595;28;20164;-78
2023/04/21 10:18:45;;;;;;;13.55;11.65;;;16.60;61.00;;;;;;5047158;28;20035;-78
2023/04/21 10:21:16;;;;;;;16.58;11.52;;;16.70;60.70;;;;;;5047674;28;20492;-78
2023/04/21 10:23:44;;;;;;;19.38;11.30;;;16.80;60.00;;;;;;5065658;28;20051;-78
2023/04/21 10:26:11;;;;;;;16.42;11.52;;;16.80;59.50;;;;;;5065983;28;20044;-78
2023/04/21 10:28:56;;;;;;;14.63;10.73;;;16.80;58.00;;;;;;5061696;28;20077;-77
2023/04/21 10:31:43;;;;;;;13.15;10.48;;;16.70;58.00;;;;;;5069798;28;20115;-77
2023/04/21 10:34:11;;;;;;;16.13;11.73;;;16.60;58.30;;;;;;5066448;28;21381;-78
2023/04/21 10:36:50;;;;;;;13.85;11.50;;;16.60;58.70;;;;;;5067053;28;20052;-77
2023/04/21 10:39:30;;;;;;;16.17;12.05;;;16.70;58.90;;;;;;5059030;28;20035;-77
2023/04/21 10:42:14;;;;;;;15.93;12.10;;;16.70;58.50;;;;;;5075276;28;20135;-78
2023/04/21 10:44:43;;;;;;;;;;;16.70;58.90;;;;;;5079306;28;20036;-77
2023/04/21 10:47:10;;;;;;;18.55;11.07;;;16.60;58.20;;;;;;5073695;28;20012;-78
2023/04/21 10:49:39;;;;;;;16.98;11.15;;;16.60;58.70;;;;;;5081971;28;20039;-77
2023/04/21 10:52:05;;;;;;;15.13;11.68;;;16.60;58.90;;;;;;5083189;28;20387;-77
2023/04/21 10:54:46;;;;;;;17.85;11.90;;;16.60;58.70;;;;;;5081551;28;20035;-78
2023/04/21 10:57:14;;;;;;;18.45;11.93;;;16.70;58.60;;;;;;5065377;28;20031;-77
2023/04/21 10:59:41;;;;;;;14.15;10.68;;;16.60;58.70;;;;;;5084943;28;20102;-77
2023/04/21 11:02:10;;;;;;;20.25;12.45;;;16.70;58.80;;;;;;5067124;28;20426;-77
2023/04/21 11:04:38;;;;;;;14.68;10.73;;;16.70;59.60;;;;;;5066407;28;20635;-78
2023/04/21 11:07:12;;;;;;;19.20;11.90;;;16.80;58.30;;;;;;5081063;28;20101;-78
2023/04/21 11:09:39;;;;;;;16.90;11.27;;;16.90;59.00;;;;;;5077987;28;20089;-78
2023/04/21 11:12:08;;;;;;;16.50;11.63;;;16.90;59.50;;;;;;5078098;28;20032;-77
2023/04/21 11:14:35;;;;;;;13.25;10.50;;;17.00;58.60;;;;;;5064725;28;20049;-77
2023/04/21 11:17:02;;;;;;;14.18;10.57;;;17.00;58.40;;;;;;5067334;28;20482;-77
2023/04/21 11:19:30;;;;;;;16.45;11.48;;;17.00;58.40;;;;;;5076608;28;20483;-77
2023/04/21 11:21:56;;;;;;;14.27;11.00;;;17.10;57.80;;;;;;5078916;28;20079;-77
2023/04/21 11:24:22;;;;;;;17.60;11.73;;;17.10;57.80;;;;;;5063166;28;20070;-76
2023/04/21 11:26:48;;;;;;;16.50;11.50;;;17.10;57.50;;;;;;5064312;28;20126;-77
2023/04/21 11:29:14;;;;;;;15.15;11.05;;;17.20;57.10;;;;;;5077323;28;20047;-77
2023/04/21 11:31:43;;;;;;;19.10;11.20;;;17.30;57.20;;;;;;5062298;28;20056;-77
2023/04/21 11:34:10;;;;;;;15.23;11.80;;;17.30;56.80;;;;;;5077685;28;20402;-77
2023/04/21 11:36:38;;;;;;;16.75;11.60;;;17.30;56.40;;;;;;5057694;28;20488;-77
2023/04/21 11:39:12;;;;;;;16.38;11.30;;;17.30;56.40;;;;;;5074130;28;20056;-76
2023/04/21 11:41:44;;;;;;;18.00;11.98;;;17.30;56.50;;;;;;5073687;28;20109;-77
2023/04/21 11:44:11;;;;;;;18.15;11.75;;;17.30;57.20;;;;;;5060579;28;20531;-76
2023/04/21 11:46:43;;;;;;;13.45;12.05;;;17.40;57.50;;;;;;5058961;28;20064;-77
2023/04/21 11:49:14;;;;;;;14.73;11.23;;;17.40;57.50;;;;;;5056660;28;20047;-76
2023/04/21 11:51:43;;;;;;;17.02;11.93;;;17.50;57.40;;;;;;5059512;28;20135;-76
2023/04/21 11:54:10;;;;;;;16.85;11.55;;;17.50;57.10;;;;;;5075485;28;20032;-76
2023/04/21 11:56:41;;;;;;;16.30;11.90;;;17.50;57.10;;;;;;5080864;28;20121;-73
2023/04/21 11:59:22;;;;;;;16.83;11.13;;;17.60;57.30;;;;;;5085340;28;20360;-74
2023/04/21 12:01:51;;;;;;;18.00;10.93;;;17.60;57.10;;;;;;5079965;28;20114;-74
2023/04/21 12:04:22;;;;;;;16.33;11.07;;;17.60;56.40;;;;;;5080321;28;20118;-75
2023/04/21 12:07:07;;;;;;;13.95;11.23;;;17.60;56.20;;;;;;5078953;28;20040;-75
2023/04/21 12:09:35;;;;;;;16.13;11.50;;;17.70;56.20;;;;;;5078102;28;20067;-75
2023/04/21 12:12:04;;;;;;;17.73;11.35;;;17.70;56.70;;;;;;5082417;28;20032;-75
2023/04/21 12:14:33;;;;;;;16.00;12.50;;;17.70;56.80;;;;;;5081061;28;20521;-75
2023/04/21 12:16:59;;;;;;;15.98;11.55;;;17.80;57.20;;;;;;5082434;28;20055;-76
2023/04/21 12:19:40;;;;;;;19.27;11.93;;;18.00;56.60;;;;;;5036097;28;20078;-75
2023/04/21 12:22:11;;;;;;;15.57;11.43;;;17.90;56.40;;;;;;5082600;28;20051;-75
2023/04/21 12:24:38;;;;;;;18.65;11.25;;;18.00;55.20;;;;;;5077377;28;20036;-76
2023/04/21 12:27:05;;;;;;;16.60;11.68;;;18.10;54.70;;;;;;5073110;28;20094;-77
2023/04/21 12:29:31;;;;;;;15.07;12.23;;;18.10;54.60;;;;;;5073401;28;20123;-77
2023/04/21 12:31:57;;;;;;;17.77;13.73;;;18.20;55.20;;;;;;5057636;28;20051;-77
2023/04/21 12:34:22;;;;;;;15.35;13.15;;;18.20;56.60;;;;;;5073893;28;20036;-77